Flight Track Log - Related Links

Times and Time Zones

All times are in EDT time to prevent confusion due to time zone crossing. See the EJA831 flight status page for this flight to view local times or setup timezone preferences in your user account.

Time Position Orientation Groundspeed Altitude Reporting Facility
EDT Latitude Longitude Course Direction KTS MPH feet Rate Location/Type
16:01 38.3500 -77.3833 142° Southeast 207 238 2,600  Level Potomac TRACON
16:02 38.3167 -77.3167 122° Southeast 241 277 3,000 1,884 Climbing Potomac TRACON
16:03 38.2667 -77.2667 142° Southeast 260 299 6,400 2,950 Climbing Potomac TRACON
16:04 38.2167 -77.1833 127° Southeast 283 326 8,900 1,576 Climbing Potomac TRACON
16:04 38.1861 -77.1425 134° Southeast 291 335 9,000 660 Climbing Washington Center
16:05 38.1308 -77.0700 134° Southeast 296 341 10,000 508 Climbing Washington Center
16:06 38.0327 -76.9327 142° Southeast  Level FlightAware Approximate
16:06 38.0753 -76.9897 131° Southeast 296 341 10,000  Level Washington Center
16:07 38.0831 -76.8739 85° East 286 329 10,600 1,736 Climbing Washington Center
16:08 38.1194 -76.7742 65° Northeast 286 329 13,500 2,826 Climbing Washington Center
16:09 38.1664 -76.6719 60° Northeast 299 344 16,300 2,579 Climbing Washington Center
16:10 38.2108 -76.5722 60° Northeast 309 356 18,700 2,269 Climbing Washington Center
16:11 38.2556 -76.4722 60° Northeast 319 367 20,800 1,966 Climbing Washington Center
16:12 38.3125 -76.3722 54° Northeast 331 381 22,600 1,082 Climbing Washington Center
16:13 38.3878 -76.3094 33° Northeast 340 391 23,000 202 Climbing Washington Center
16:14 38.4739 -76.2281 36° Northeast 365 420 23,000 1,008 Level Washington Center
16:15 38.5617 -76.1467 36° Northeast 376 433 25,000 992 Climbing Washington Center
16:16 38.6603 -76.0542 36° Northeast 393 452 25,000  Level Washington Center
16:17 38.7500 -75.9750 35° Northeast 393 452 25,000  Level Washington Center
16:18 38.8400 -75.8900 36° Northeast 393 452 25,000 756 Level Washington Center
16:19 38.9256 -75.8078 37° Northeast 388 447 26,500 1,525 Climbing Washington Center
16:20 39.0092 -75.7306 36° Northeast 388 447 28,100 1,587 Climbing Washington Center
16:21 39.0947 -75.6506 36° Northeast 383 441 29,700 1,300 Climbing Washington Center
16:22 39.1781 -75.5703 37° Northeast 383 441 30,700 661 Climbing Washington Center
16:23 39.2675 -75.4869 36° Northeast 388 447 31,000 151 Climbing Washington Center
16:24 39.3592 -75.4036 35° Northeast 394 453 31,000  Level Washington Center
16:26 39.5453 -75.2372 35° Northeast 391 450 31,000  Level New York Center
16:27 39.6339 -75.1539 36° Northeast 391 450 31,000  Level New York Center
16:28 39.7250 -75.0597 38° Northeast 402 463 31,000  Level New York Center
16:29 39.8117 -74.9650 40° Northeast 407 468 31,000  Level New York Center
16:30 39.8964 -74.8728 40° Northeast 402 463 31,000  Level New York Center
16:31 39.9789 -74.7772 42° Northeast 396 456 31,000  Level New York Center
16:32 40.0633 -74.6819 41° Northeast 395 455 31,000  Level New York Center
16:33 40.1456 -74.5861 42° Northeast 395 455 31,000  Level New York Center
16:34 40.2192 -74.5031 41° Northeast 390 449 31,000  Level New York Center
16:35 40.3056 -74.4044 41° Northeast 395 455 31,000  Level New York Center
16:36 40.3878 -74.3078 42° Northeast 395 455 31,000  Level New York Center
16:37 40.4697 -74.2167 40° Northeast 395 455 31,000 -1,213 Level New York Center
16:39 40.6472 -74.0156 41° Northeast 395 455 27,200 -1,883 Descending Boston Center
16:40 40.7297 -73.9189 42° Northeast 390 449 25,100 -1,600 Descending Boston Center
16:41 40.8081 -73.8247 42° Northeast 380 437 24,000 -550 Descending Boston Center
16:42 40.9008 -73.7361 36° Northeast 380 437 24,000 -450 Level Boston Center
16:43 40.9994 -73.6806 23° Northeast 373 429 23,100 -500 Descending Boston Center
16:44 41.0978 -73.6272 22° Northeast 373 429 23,000 -450 Descending Boston Center
16:45 41.1922 -73.5739 23° Northeast 373 429 22,200 -1,100 Descending Boston Center
16:46 41.2906 -73.5342 17° North 373 429 20,800 -1,450 Descending Boston Center
16:47 41.3906 -73.5331 360° North 359 413 19,300 -1,600 Descending Boston Center
16:48 41.4803 -73.5344 359° North 359 413 17,600 -2,100 Descending Boston Center
16:49 41.5844 -73.5308 North 346 398 15,100 -2,300 Descending Boston Center
16:50 41.6697 -73.5322 359° North 340 391 13,000 -2,050 Descending Boston Center
16:51 41.7700 -73.5311 360° North 335 386 11,000 -1,000 Descending Boston Center
16:52 41.8511 -73.5297 North 324 373 11,000  Level Boston Center
16:54 41.9533 -73.5289 360° North 324 373 11,000  Level Boston Center
16:55 42.0617 -73.5278 360° North 329 379 11,000 -50 Level Boston Center
16:56 42.1453 -73.5208 North 329 379 10,900 -136 Descending Boston Center
16:57 42.2575 -73.5453 351° North 309 356 10,700 -870 Descending Boston Center
16:58 42.3425 -73.5833 342° North 280 322 8,900 -1,266 Descending Boston Center
16:59 42.4236 -73.6131 345° North 290 334 8,000 -885 Descending Boston Center
17:00 42.4983 -73.6453 342° North 285 328 7,100 -1,350 Descending Boston Center
17:01 42.5750 -73.6722 345° North 274 315 5,300 -1,041 Descending Boston Center
17:02 42.6414 -73.7017 342° North 258 297 5,000 -724 Descending Boston Center
17:03 42.7036 -73.7256 344° North 251 289 3,900 -1,043 Descending Boston Center
17:04 42.7681 -73.7494 345° North 233 268 3,000 -898 Descending Boston Center
17:05 42.8364 -73.7794 342° North 222 255 2,000 -492 Descending Boston Center
17:06 42.8883 -73.7975 346° North 213 245 2,000  Level Boston Center

Login

Don't have an account? Register now (free) for customized features, flight alerts, and more!